sensor_id;sensor_type;location;lat;lon;timestamp;pressure;altitude;pressure_sealevel;temperature;humidity
68871;BME280;55906;52.278;6.808;2023-08-06T00:00:07;100412.03;;;15.88;94.41
68871;BME280;55906;52.278;6.808;2023-08-06T00:02:34;100412.03;;;15.86;94.58
68871;BME280;55906;52.278;6.808;2023-08-06T00:05:01;100420.88;;;15.87;94.27
68871;BME280;55906;52.278;6.808;2023-08-06T00:07:29;100417.34;;;15.85;94.74
68871;BME280;55906;52.278;6.808;2023-08-06T00:09:55;100405.84;;;15.83;94.98
68871;BME280;55906;52.278;6.808;2023-08-06T00:12:22;100409.38;;;15.83;95.11
68871;BME280;55906;52.278;6.808;2023-08-06T00:14:51;100406.72;;;15.83;94.87
68871;BME280;55906;52.278;6.808;2023-08-06T00:17:18;100409.38;;;15.80;95.46
68871;BME280;55906;52.278;6.808;2023-08-06T00:19:45;100402.31;;;15.82;94.79
68871;BME280;55906;52.278;6.808;2023-08-06T00:22:12;100400.53;;;15.83;94.63
68871;BME280;55906;52.278;6.808;2023-08-06T00:24:38;100405.84;;;15.81;94.55
68871;BME280;55906;52.278;6.808;2023-08-06T00:27:05;100402.31;;;15.81;94.72
68871;BME280;55906;52.278;6.808;2023-08-06T00:29:32;100401.44;;;15.82;95.11
68871;BME280;55906;52.278;6.808;2023-08-06T00:32:00;100407.63;;;15.79;95.31
68871;BME280;55906;52.278;6.808;2023-08-06T00:34:27;100412.94;;;15.79;94.90
68871;BME280;55906;52.278;6.808;2023-08-06T00:36:53;100418.25;;;15.78;95.24
68871;BME280;55906;52.278;6.808;2023-08-06T00:39:20;100413.81;;;15.77;95.21
68871;BME280;55906;52.278;6.808;2023-08-06T00:41:47;100409.41;;;15.77;95.09
68871;BME280;55906;52.278;6.808;2023-08-06T00:44:13;100407.63;;;15.79;94.94
68871;BME280;55906;52.278;6.808;2023-08-06T00:46:40;100405.88;;;15.78;94.90
68871;BME280;55906;52.278;6.808;2023-08-06T00:49:08;100404.97;;;15.79;94.88
68871;BME280;55906;52.278;6.808;2023-08-06T00:51:35;100404.97;;;15.79;95.05
68871;BME280;55906;52.278;6.808;2023-08-06T00:54:02;100407.63;;;15.76;94.94
68871;BME280;55906;52.278;6.808;2023-08-06T00:56:29;100403.22;;;15.78;95.16
68871;BME280;55906;52.278;6.808;2023-08-06T00:58:56;100400.56;;;15.78;95.03
68871;BME280;55906;52.278;6.808;2023-08-06T01:01:22;100402.34;;;15.76;95.08
68871;BME280;55906;52.278;6.808;2023-08-06T01:03:49;100399.69;;;15.76;94.88
68871;BME280;55906;52.278;6.808;2023-08-06T01:06:19;100404.09;;;15.77;94.98
68871;BME280;55906;52.278;6.808;2023-08-06T01:08:56;100402.34;;;15.73;95.04
68871;BME280;55906;52.278;6.808;2023-08-06T01:11:27;100397.03;;;15.72;95.29
68871;BME280;55906;52.278;6.808;2023-08-06T01:14:01;100396.16;;;15.73;95.17
68871;BME280;55906;52.278;6.808;2023-08-06T01:16:31;100408.53;;;15.72;95.39
68871;BME280;55906;52.278;6.808;2023-08-06T01:18:59;100404.09;;;15.73;95.35
68871;BME280;55906;52.278;6.808;2023-08-06T01:21:27;100394.38;;;15.73;95.28
68871;BME280;55906;52.278;6.808;2023-08-06T01:23:54;100382.91;;;15.71;95.30
68871;BME280;55906;52.278;6.808;2023-08-06T01:26:25;100385.53;;;15.74;95.17
68871;BME280;55906;52.278;6.808;2023-08-06T01:28:59;100389.94;;;15.75;95.20
68871;BME280;55906;52.278;6.808;2023-08-06T01:31:31;100382.00;;;15.72;95.30
68871;BME280;55906;52.278;6.808;2023-08-06T01:33:58;100380.25;;;15.71;95.88
68871;BME280;55906;52.278;6.808;2023-08-06T01:36:28;100384.66;;;15.72;95.68
68871;BME280;55906;52.278;6.808;2023-08-06T01:38:54;100383.78;;;15.73;95.96
68871;BME280;55906;52.278;6.808;2023-08-06T01:41:22;100377.59;;;15.74;95.96
68871;BME280;55906;52.278;6.808;2023-08-06T01:43:49;100380.25;;;15.73;95.74
68871;BME280;55906;52.278;6.808;2023-08-06T01:46:16;100381.13;;;15.73;95.66
68871;BME280;55906;52.278;6.808;2023-08-06T01:48:43;100374.94;;;15.73;95.70
68871;BME280;55906;52.278;6.808;2023-08-06T01:51:09;100365.22;;;15.73;95.68
68871;BME280;55906;52.278;6.808;2023-08-06T01:53:37;100374.03;;;15.74;95.57
68871;BME280;55906;52.278;6.808;2023-08-06T01:56:04;100365.22;;;15.72;95.45
68871;BME280;55906;52.278;6.808;2023-08-06T01:58:31;100362.56;;;15.73;95.93
68871;BME280;55906;52.278;6.808;2023-08-06T02:00:57;100368.75;;;15.74;95.97
68871;BME280;55906;52.278;6.808;2023-08-06T02:03:24;100363.44;;;15.75;95.52
68871;BME280;55906;52.278;6.808;2023-08-06T02:05:50;100358.13;;;15.72;95.51
68871;BME280;55906;52.278;6.808;2023-08-06T02:08:17;100358.13;;;15.74;96.01
68871;BME280;55906;52.278;6.808;2023-08-06T02:10:46;100351.94;;;15.72;95.87
68871;BME280;55906;52.278;6.808;2023-08-06T02:13:12;100347.53;;;15.69;96.03
68871;BME280;55906;52.278;6.808;2023-08-06T02:15:42;100348.41;;;15.71;95.97
68871;BME280;55906;52.278;6.808;2023-08-06T02:18:08;100351.97;;;15.70;96.14
68871;BME280;55906;52.278;6.808;2023-08-06T02:20:35;100350.19;;;15.71;96.44
68871;BME280;55906;52.278;6.808;2023-08-06T02:23:02;100349.31;;;15.70;96.22
68871;BME280;55906;52.278;6.808;2023-08-06T02:25:28;100349.28;;;15.73;96.27
68871;BME280;55906;52.278;6.808;2023-08-06T02:27:56;100349.28;;;15.75;96.63
68871;BME280;55906;52.278;6.808;2023-08-06T02:30:23;100344.88;;;15.74;96.19
68871;BME280;55906;52.278;6.808;2023-08-06T02:32:49;100346.66;;;15.73;96.57
68871;BME280;55906;52.278;6.808;2023-08-06T02:35:16;100344.00;;;15.73;96.14
68871;BME280;55906;52.278;6.808;2023-08-06T02:37:42;100329.84;;;15.74;96.20
68871;BME280;55906;52.278;6.808;2023-08-06T02:40:10;100328.97;;;15.72;96.52
68871;BME280;55906;52.278;6.808;2023-08-06T02:42:36;100327.19;;;15.73;96.33
68871;BME280;55906;52.278;6.808;2023-08-06T02:45:05;100328.97;;;15.74;96.65
68871;BME280;55906;52.278;6.808;2023-08-06T02:47:32;100329.84;;;15.71;96.31
68871;BME280;55906;52.278;6.808;2023-08-06T02:49:59;100324.56;;;15.71;96.21
68871;BME280;55906;52.278;6.808;2023-08-06T02:52:25;100319.25;;;15.70;96.84
68871;BME280;55906;52.278;6.808;2023-08-06T02:54:52;100322.78;;;15.70;96.23
68871;BME280;55906;52.278;6.808;2023-08-06T02:57:18;100321.00;;;15.71;96.37
68871;BME280;55906;52.278;6.808;2023-08-06T02:59:45;100326.31;;;15.72;96.61
68871;BME280;55906;52.278;6.808;2023-08-06T03:02:13;100325.41;;;15.75;96.35
68871;BME280;55906;52.278;6.808;2023-08-06T03:04:40;100317.47;;;15.73;96.35
68871;BME280;55906;52.278;6.808;2023-08-06T03:07:06;100321.88;;;15.73;96.56
68871;BME280;55906;52.278;6.808;2023-08-06T03:09:33;100314.81;;;15.72;96.76
68871;BME280;55906;52.278;6.808;2023-08-06T03:12:00;100317.50;;;15.67;97.10
68871;BME280;55906;52.278;6.808;2023-08-06T03:14:26;100318.38;;;15.71;96.86
68871;BME280;55906;52.278;6.808;2023-08-06T03:16:53;100315.72;;;15.71;96.81
68871;BME280;55906;52.278;6.808;2023-08-06T03:19:21;100307.78;;;15.67;97.13
68871;BME280;55906;52.278;6.808;2023-08-06T03:21:47;100309.53;;;15.70;96.93
68871;BME280;55906;52.278;6.808;2023-08-06T03:24:14;100314.84;;;15.67;96.95
68871;BME280;55906;52.278;6.808;2023-08-06T03:26:40;100320.16;;;15.65;97.13
68871;BME280;55906;52.278;6.808;2023-08-06T03:29:07;100318.38;;;15.69;97.02
68871;BME280;55906;52.278;6.808;2023-08-06T03:31:34;100320.13;;;15.70;96.86
68871;BME280;55906;52.278;6.808;2023-08-06T03:34:00;100317.47;;;15.70;96.75
68871;BME280;55906;52.278;6.808;2023-08-06T03:36:28;100327.19;;;15.71;97.07
68871;BME280;55906;52.278;6.808;2023-08-06T03:38:55;100328.09;;;15.72;97.01
68871;BME280;55906;52.278;6.808;2023-08-06T03:41:21;100325.44;;;15.72;97.01
68871;BME280;55906;52.278;6.808;2023-08-06T03:43:48;100327.19;;;15.73;97.35
68871;BME280;55906;52.278;6.808;2023-08-06T03:46:15;100325.41;;;15.76;97.24
68871;BME280;55906;52.278;6.808;2023-08-06T03:48:41;100325.41;;;15.78;96.95
68871;BME280;55906;52.278;6.808;2023-08-06T03:51:08;100324.53;;;15.77;97.24
68871;BME280;55906;52.278;6.808;2023-08-06T03:53:36;100320.09;;;15.79;97.52
68871;BME280;55906;52.278;6.808;2023-08-06T03:56:03;100321.88;;;15.79;97.19
68871;BME280;55906;52.278;6.808;2023-08-06T03:58:29;100319.22;;;15.80;97.25
68871;BME280;55906;52.278;6.808;2023-08-06T04:00:59;100316.53;;;15.82;97.69
68871;BME280;55906;52.278;6.808;2023-08-06T04:03:26;100319.19;;;15.83;96.92
68871;BME280;55906;52.278;6.808;2023-08-06T04:05:54;100314.78;;;15.81;97.42
68871;BME280;55906;52.278;6.808;2023-08-06T04:08:20;100305.94;;;15.82;97.47
68871;BME280;55906;52.278;6.808;2023-08-06T04:10:51;100304.16;;;15.84;97.18
68871;BME280;55906;52.278;6.808;2023-08-06T04:13:17;100311.22;;;15.85;97.02
68871;BME280;55906;52.278;6.808;2023-08-06T04:15:44;100307.69;;;15.86;97.06
68871;BME280;55906;52.278;6.808;2023-08-06T04:18:10;100311.22;;;15.86;96.98
68871;BME280;55906;52.278;6.808;2023-08-06T04:20:42;100312.09;;;15.88;96.90
68871;BME280;55906;52.278;6.808;2023-08-06T04:23:09;100307.69;;;15.87;96.94
68871;BME280;55906;52.278;6.808;2023-08-06T04:25:35;100311.22;;;15.85;97.13
68871;BME280;55906;52.278;6.808;2023-08-06T04:28:03;100308.56;;;15.86;96.94
68871;BME280;55906;52.278;6.808;2023-08-06T04:30:30;100309.44;;;15.87;97.10
68871;BME280;55906;52.278;6.808;2023-08-06T04:32:57;100306.78;;;15.87;96.99
68871;BME280;55906;52.278;6.808;2023-08-06T04:35:24;100315.63;;;15.87;97.14
68871;BME280;55906;52.278;6.808;2023-08-06T04:37:50;100308.56;;;15.86;97.22
68871;BME280;55906;52.278;6.808;2023-08-06T04:40:17;100305.91;;;15.89;97.26
68871;BME280;55906;52.278;6.808;2023-08-06T04:42:44;100308.56;;;15.89;97.01
68871;BME280;55906;52.278;6.808;2023-08-06T04:45:12;100310.31;;;15.93;96.80
68871;BME280;55906;52.278;6.808;2023-08-06T04:47:38;100305.88;;;15.95;96.80
68871;BME280;55906;52.278;6.808;2023-08-06T04:50:06;100307.63;;;15.99;96.95
68871;BME280;55906;52.278;6.808;2023-08-06T04:52:32;100306.72;;;16.02;96.80
68871;BME280;55906;52.278;6.808;2023-08-06T04:54:59;100317.31;;;16.07;96.73
68871;BME280;55906;52.278;6.808;2023-08-06T04:57:25;100312.84;;;16.10;96.76
68871;BME280;55906;52.278;6.808;2023-08-06T04:59:52;100316.38;;;16.15;96.83
68871;BME280;55906;52.278;6.808;2023-08-06T05:02:20;100311.94;;;16.19;96.56
68871;BME280;55906;52.278;6.808;2023-08-06T05:04:46;100317.22;;;16.22;96.58
68871;BME280;55906;52.278;6.808;2023-08-06T05:07:13;100311.91;;;16.22;96.21
68871;BME280;55906;52.278;6.808;2023-08-06T05:09:40;100316.34;;;16.21;96.20
68871;BME280;55906;52.278;6.808;2023-08-06T05:12:07;100311.88;;;16.25;96.16
68871;BME280;55906;52.278;6.808;2023-08-06T05:14:34;100317.16;;;16.29;95.94
68871;BME280;55906;52.278;6.808;2023-08-06T05:17:00;100318.00;;;16.35;96.25
68871;BME280;55906;52.278;6.808;2023-08-06T05:19:31;100318.88;;;16.38;95.84
68871;BME280;55906;52.278;6.808;2023-08-06T05:21:57;100321.53;;;16.38;95.79
68871;BME280;55906;52.278;6.808;2023-08-06T05:24:24;100327.69;;;16.43;95.73
68871;BME280;55906;52.278;6.808;2023-08-06T05:26:50;100330.31;;;16.48;95.45
68871;BME280;55906;52.278;6.808;2023-08-06T05:29:17;100324.09;;;16.52;95.79
68871;BME280;55906;52.278;6.808;2023-08-06T05:31:44;100322.28;;;16.55;95.43
68871;BME280;55906;52.278;6.808;2023-08-06T05:34:10;100325.78;;;16.60;95.34
68871;BME280;55906;52.278;6.808;2023-08-06T05:36:38;100332.84;;;16.68;95.00
68871;BME280;55906;52.278;6.808;2023-08-06T05:39:05;100334.59;;;16.72;94.94
68871;BME280;55906;52.278;6.808;2023-08-06T05:41:31;100338.09;;;16.78;94.56
68871;BME280;55906;52.278;6.808;2023-08-06T05:43:58;100337.16;;;16.82;94.67
68871;BME280;55906;52.278;6.808;2023-08-06T05:46:24;100338.03;;;16.86;94.58
68871;BME280;55906;52.278;6.808;2023-08-06T05:48:51;100337.13;;;16.91;94.48
68871;BME280;55906;52.278;6.808;2023-08-06T05:51:18;100345.91;;;17.00;94.28
68871;BME280;55906;52.278;6.808;2023-08-06T05:53:46;100344.97;;;17.05;93.87
68871;BME280;55906;52.278;6.808;2023-08-06T05:56:14;100344.06;;;17.08;93.85
68871;BME280;55906;52.278;6.808;2023-08-06T05:58:41;100341.34;;;17.15;94.01
68871;BME280;55906;52.278;6.808;2023-08-06T06:01:07;100339.47;;;17.23;93.69
68871;BME280;55906;52.278;6.808;2023-08-06T06:03:34;100334.94;;;17.35;93.16
68871;BME280;55906;52.278;6.808;2023-08-06T06:06:01;100335.72;;;17.43;92.95
68871;BME280;55906;52.278;6.808;2023-08-06T06:08:28;100341.81;;;17.54;92.94
68871;BME280;55906;52.278;6.808;2023-08-06T06:10:56;100336.41;;;17.62;92.16
68871;BME280;55906;52.278;6.808;2023-08-06T06:13:23;100351.44;;;17.64;91.89
68871;BME280;55906;52.278;6.808;2023-08-06T06:15:49;100350.53;;;17.71;91.72
68871;BME280;55906;52.278;6.808;2023-08-06T06:18:16;100348.66;;;17.78;91.51
68871;BME280;55906;52.278;6.808;2023-08-06T06:20:42;100346.78;;;17.86;91.42
68871;BME280;55906;52.278;6.808;2023-08-06T06:23:09;100345.78;;;17.95;91.33
68871;BME280;55906;52.278;6.808;2023-08-06T06:25:36;100347.47;;;18.02;90.95
68871;BME280;55906;52.278;6.808;2023-08-06T06:28:04;100349.13;;;18.10;90.68
68871;BME280;55906;52.278;6.808;2023-08-06T06:30:30;100348.16;;;18.16;90.09
68871;BME280;55906;52.278;6.808;2023-08-06T06:32:57;100356.19;;;18.14;89.55
68871;BME280;55906;52.278;6.808;2023-08-06T06:35:23;100351.69;;;18.19;89.92
68871;BME280;55906;52.278;6.808;2023-08-06T06:37:50;100348.97;;;18.24;89.58
68871;BME280;55906;52.278;6.808;2023-08-06T06:40:17;100352.38;;;18.35;89.37
68871;BME280;55906;52.278;6.808;2023-08-06T06:42:43;100355.84;;;18.40;89.09
68871;BME280;55906;52.278;6.808;2023-08-06T06:45:11;100360.22;;;18.46;88.98
68871;BME280;55906;52.278;6.808;2023-08-06T06:47:38;100359.25;;;18.50;88.46
68871;BME280;55906;52.278;6.808;2023-08-06T06:50:05;100358.28;;;18.55;87.95
68871;BME280;55906;52.278;6.808;2023-08-06T06:52:32;100365.28;;;18.66;88.25
68871;BME280;55906;52.278;6.808;2023-08-06T06:54:59;100359.81;;;18.73;87.69
68871;BME280;55906;52.278;6.808;2023-08-06T06:57:26;100349.91;;;18.83;87.23
68871;BME280;55906;52.278;6.808;2023-08-06T06:59:52;100353.38;;;18.88;86.97
68871;BME280;55906;52.278;6.808;2023-08-06T07:02:20;100361.22;;;18.97;86.56
68871;BME280;55906;52.278;6.808;2023-08-06T07:04:47;100366.41;;;19.05;86.83
68871;BME280;55906;52.278;6.808;2023-08-06T07:07:13;100363.63;;;19.11;86.54
68871;BME280;55906;52.278;6.808;2023-08-06T07:09:40;100366.16;;;19.18;86.55
68871;BME280;55906;52.278;6.808;2023-08-06T07:12:07;100365.16;;;19.26;86.62
68871;BME280;55906;52.278;6.808;2023-08-06T07:14:34;100368.63;;;19.31;86.49
68871;BME280;55906;52.278;6.808;2023-08-06T07:17:00;100372.09;;;19.36;86.38
68871;BME280;55906;52.278;6.808;2023-08-06T07:19:28;100366.81;;;19.33;85.47
68871;BME280;55906;52.278;6.808;2023-08-06T07:21:55;100367.69;;;19.33;85.66
68871;BME280;55906;52.278;6.808;2023-08-06T07:24:22;100368.56;;;19.34;85.60
68871;BME280;55906;52.278;6.808;2023-08-06T07:26:48;100362.34;;;19.33;85.47
68871;BME280;55906;52.278;6.808;2023-08-06T07:29:15;100374.69;;;19.39;85.65
68871;BME280;55906;52.278;6.808;2023-08-06T07:31:45;100366.69;;;19.39;85.20
68871;BME280;55906;52.278;6.808;2023-08-06T07:34:11;100376.47;;;19.40;84.99
68871;BME280;55906;52.278;6.808;2023-08-06T07:36:39;100374.75;;;19.36;84.43
68871;BME280;55906;52.278;6.808;2023-08-06T07:39:06;100380.16;;;19.33;84.72
68871;BME280;55906;52.278;6.808;2023-08-06T07:41:32;100377.47;;;19.33;84.75
68871;BME280;55906;52.278;6.808;2023-08-06T07:43:59;100374.81;;;19.33;84.57
68871;BME280;55906;52.278;6.808;2023-08-06T07:46:26;100382.03;;;19.26;84.99
68871;BME280;55906;52.278;6.808;2023-08-06T07:48:52;100380.28;;;19.25;84.57
68871;BME280;55906;52.278;6.808;2023-08-06T07:51:19;100383.63;;;19.36;84.53
68871;BME280;55906;52.278;6.808;2023-08-06T07:53:47;100380.84;;;19.44;84.20
68871;BME280;55906;52.278;6.808;2023-08-06T07:56:14;100379.84;;;19.51;84.18
68871;BME280;55906;52.278;6.808;2023-08-06T07:58:41;100386.06;;;19.53;84.30
68871;BME280;55906;52.278;6.808;2023-08-06T08:01:07;100378.72;;;19.64;83.85
68871;BME280;55906;52.278;6.808;2023-08-06T08:03:34;100381.38;;;19.66;83.39
68871;BME280;55906;52.278;6.808;2023-08-06T08:06:01;100386.59;;;19.72;83.14
68871;BME280;55906;52.278;6.808;2023-08-06T08:08:28;100383.00;;;19.73;83.87
68871;BME280;55906;52.278;6.808;2023-08-06T08:10:56;100384.72;;;19.77;82.77
68871;BME280;55906;52.278;6.808;2023-08-06T08:13:24;100391.75;;;19.81;83.60
68871;BME280;55906;52.278;6.808;2023-08-06T08:15:56;100388.25;;;19.77;82.13
68871;BME280;55906;52.278;6.808;2023-08-06T08:18:23;100389.75;;;19.92;83.00
68871;BME280;55906;52.278;6.808;2023-08-06T08:20:50;100398.47;;;20.00;82.16
68871;BME280;55906;52.278;6.808;2023-08-06T08:23:17;100386.56;;;20.17;82.34
68871;BME280;55906;52.278;6.808;2023-08-06T08:25:44;100388.94;;;20.30;81.49
68871;BME280;55906;52.278;6.808;2023-08-06T08:28:12;100381.44;;;20.49;80.18
68871;BME280;55906;52.278;6.808;2023-08-06T08:30:40;100384.19;;;20.85;80.34
68871;BME280;55906;52.278;6.808;2023-08-06T08:33:07;100388.38;;;20.96;79.60
68871;BME280;55906;52.278;6.808;2023-08-06T08:35:34;100392.25;;;21.19;79.65
68871;BME280;55906;52.278;6.808;2023-08-06T08:38:00;100391.50;;;21.14;76.72
68871;BME280;55906;52.278;6.808;2023-08-06T08:40:31;100393.44;;;21.43;78.03
68871;BME280;55906;52.278;6.808;2023-08-06T08:42:58;100389.38;;;21.62;78.11
68871;BME280;55906;52.278;6.808;2023-08-06T08:45:29;100382.53;;;21.83;76.40
68871;BME280;55906;52.278;6.808;2023-08-06T08:47:56;100384.94;;;21.92;76.26
68871;BME280;55906;52.278;6.808;2023-08-06T08:50:22;100380.00;;;22.09;76.08
68871;BME280;55906;52.278;6.808;2023-08-06T08:52:50;100373.78;;;22.40;75.08
68871;BME280;55906;52.278;6.808;2023-08-06T08:55:17;100376.34;;;22.43;74.38
68871;BME280;55906;52.278;6.808;2023-08-06T08:57:46;100368.66;;;22.32;72.73
68871;BME280;55906;52.278;6.808;2023-08-06T09:00:13;100374.16;;;22.27;70.35
68871;BME280;55906;52.278;6.808;2023-08-06T09:02:41;100378.41;;;22.62;73.56
68871;BME280;55906;52.278;6.808;2023-08-06T09:05:09;100377.09;;;22.76;73.38
68871;BME280;55906;52.278;6.808;2023-08-06T09:07:41;100379.81;;;22.74;70.37
68871;BME280;55906;52.278;6.808;2023-08-06T09:10:11;100376.22;;;22.75;71.15
68871;BME280;55906;52.278;6.808;2023-08-06T09:12:39;100382.88;;;22.91;71.20
68871;BME280;55906;52.278;6.808;2023-08-06T09:15:06;100378.13;;;22.99;71.05
68871;BME280;55906;52.278;6.808;2023-08-06T09:17:33;100378.34;;;22.93;68.77
68871;BME280;55906;52.278;6.808;2023-08-06T09:20:10;100392.78;;;23.16;68.59
68871;BME280;55906;52.278;6.808;2023-08-06T09:22:37;100387.22;;;23.22;69.47
68871;BME280;55906;52.278;6.808;2023-08-06T09:25:04;100394.81;;;23.36;69.35
68871;BME280;55906;52.278;6.808;2023-08-06T09:27:35;100385.88;;;23.35;67.88
68871;BME280;55906;52.278;6.808;2023-08-06T09:30:02;100393.53;;;23.47;68.36
68871;BME280;55906;52.278;6.808;2023-08-06T09:32:44;100391.81;;;23.71;66.65
68871;BME280;55906;52.278;6.808;2023-08-06T09:35:16;100387.03;;;23.79;65.28
68871;BME280;55906;52.278;6.808;2023-08-06T09:37:43;100389.28;;;23.91;66.73
68871;BME280;55906;52.278;6.808;2023-08-06T09:40:24;100391.00;;;24.17;63.92
68871;BME280;55906;52.278;6.808;2023-08-06T09:42:51;100394.66;;;24.40;65.51
68871;BME280;55906;52.278;6.808;2023-08-06T09:45:18;100396.28;;;24.44;65.51
68871;BME280;55906;52.278;6.808;2023-08-06T09:47:47;100395.75;;;24.57;64.70
68871;BME280;55906;52.278;6.808;2023-08-06T09:50:16;100398.50;;;24.56;60.41
68871;BME280;55906;52.278;6.808;2023-08-06T09:52:44;100404.22;;;24.23;63.19
68871;BME280;55906;52.278;6.808;2023-08-06T09:55:11;100404.84;;;24.32;64.76
68871;BME280;55906;52.278;6.808;2023-08-06T09:57:39;100397.09;;;24.46;63.31
68871;BME280;55906;52.278;6.808;2023-08-06T10:00:07;100401.63;;;24.67;62.50
68871;BME280;55906;52.278;6.808;2023-08-06T10:02:35;100403.06;;;24.77;63.26
68871;BME280;55906;52.278;6.808;2023-08-06T10:05:02;100396.25;;;24.91;62.58
68871;BME280;55906;52.278;6.808;2023-08-06T10:07:31;100395.72;;;25.04;58.92
68871;BME280;55906;52.278;6.808;2023-08-06T10:09:58;100399.22;;;25.06;60.73
68871;BME280;55906;52.278;6.808;2023-08-06T10:12:26;100394.03;;;25.64;60.25
68871;BME280;55906;52.278;6.808;2023-08-06T10:14:55;100403.16;;;26.02;59.13
68871;BME280;55906;52.278;6.808;2023-08-06T10:17:23;100402.22;;;26.03;57.97
68871;BME280;55906;52.278;6.808;2023-08-06T10:19:51;100391.97;;;26.11;59.23
68871;BME280;55906;52.278;6.808;2023-08-06T10:22:20;100392.38;;;26.02;59.39
68871;BME280;55906;52.278;6.808;2023-08-06T10:25:01;100388.03;;;25.98;58.15
68871;BME280;55906;52.278;6.808;2023-08-06T10:27:32;100388.41;;;25.70;59.27
68871;BME280;55906;52.278;6.808;2023-08-06T10:30:21;100392.63;;;25.96;55.06
68871;BME280;55906;52.278;6.808;2023-08-06T10:32:48;100385.19;;;26.22;57.53
68871;BME280;55906;52.278;6.808;2023-08-06T10:35:29;100379.63;;;26.45;54.58
68871;BME280;55906;52.278;6.808;2023-08-06T10:37:58;100378.41;;;26.32;55.56
68871;BME280;55906;52.278;6.808;2023-08-06T10:40:27;100384.59;;;26.54;54.80
68871;BME280;55906;52.278;6.808;2023-08-06T10:42:55;100383.13;;;26.47;55.46
68871;BME280;55906;52.278;6.808;2023-08-06T10:45:21;100387.38;;;25.93;55.88
68871;BME280;55906;52.278;6.808;2023-08-06T10:47:53;100387.94;;;26.01;56.06
68871;BME280;55906;52.278;6.808;2023-08-06T10:50:20;100382.09;;;26.68;54.18
68871;BME280;55906;52.278;6.808;2023-08-06T10:52:47;100381.16;;;27.59;53.54
68871;BME280;55906;52.278;6.808;2023-08-06T10:55:14;100380.94;;;28.14;51.91
68871;BME280;55906;52.278;6.808;2023-08-06T10:57:50;100380.22;;;28.27;51.76
68871;BME280;55906;52.278;6.808;2023-08-06T11:00:16;100384.06;;;28.23;51.10
68871;BME280;55906;52.278;6.808;2023-08-06T11:02:43;100377.81;;;28.54;51.59
68871;BME280;55906;52.278;6.808;2023-08-06T11:05:11;100391.34;;;28.21;48.95
68871;BME280;55906;52.278;6.808;2023-08-06T11:07:38;100384.06;;;28.39;50.26
68871;BME280;55906;52.278;6.808;2023-08-06T11:10:06;100385.22;;;28.18;49.29
68871;BME280;55906;52.278;6.808;2023-08-06T11:12:33;100382.94;;;28.27;47.42
68871;BME280;55906;52.278;6.808;2023-08-06T11:15:02;100389.13;;;27.79;50.22
68871;BME280;55906;52.278;6.808;2023-08-06T11:17:30;100381.09;;;27.78;50.53
68871;BME280;55906;52.278;6.808;2023-08-06T11:19:59;100381.00;;;27.96;46.83
68871;BME280;55906;52.278;6.808;2023-08-06T11:22:26;100382.50;;;28.35;49.12
68871;BME280;55906;52.278;6.808;2023-08-06T11:24:54;100383.69;;;28.62;46.31
68871;BME280;55906;52.278;6.808;2023-08-06T11:27:20;100382.69;;;28.32;48.12
68871;BME280;55906;52.278;6.808;2023-08-06T11:29:47;100384.56;;;28.63;43.86
68871;BME280;55906;52.278;6.808;2023-08-06T11:32:15;100379.09;;;29.26;45.30
68871;BME280;55906;52.278;6.808;2023-08-06T11:34:43;100382.19;;;29.20;44.42
68871;BME280;55906;52.278;6.808;2023-08-06T11:37:09;100385.34;;;29.12;44.46
68871;BME280;55906;52.278;6.808;2023-08-06T11:39:37;100385.16;;;29.15;45.47
68871;BME280;55906;52.278;6.808;2023-08-06T11:42:04;100378.69;;;29.18;45.65
68871;BME280;55906;52.278;6.808;2023-08-06T11:44:33;100369.16;;;29.56;45.77
68871;BME280;55906;52.278;6.808;2023-08-06T11:47:01;100371.72;;;29.74;43.19
68871;BME280;55906;52.278;6.808;2023-08-06T11:49:44;100371.22;;;29.67;42.87
68871;BME280;55906;52.278;6.808;2023-08-06T11:52:16;100375.31;;;29.88;43.00
68871;BME280;55906;52.278;6.808;2023-08-06T11:54:45;100369.06;;;30.59;41.97
68871;BME280;55906;52.278;6.808;2023-08-06T11:57:12;100371.50;;;30.91;41.03
68871;BME280;55906;52.278;6.808;2023-08-06T11:59:39;100366.34;;;31.67;42.16
68871;BME280;55906;52.278;6.808;2023-08-06T12:02:08;100363.13;;;32.00;41.13
68871;BME280;55906;52.278;6.808;2023-08-06T12:05:01;100365.22;;;31.44;40.26
68871;BME280;55906;52.278;6.808;2023-08-06T12:07:30;100375.06;;;30.64;41.45
68871;BME280;55906;52.278;6.808;2023-08-06T12:09:57;100371.28;;;29.96;41.79
68871;BME280;55906;52.278;6.808;2023-08-06T12:12:24;100376.53;;;29.69;44.15
68871;BME280;55906;52.278;6.808;2023-08-06T12:14:50;100381.06;;;29.08;45.03
68871;BME280;55906;52.278;6.808;2023-08-06T12:17:17;100383.38;;;28.51;45.49
68871;BME280;55906;52.278;6.808;2023-08-06T12:19:44;100389.03;;;27.98;46.64
68871;BME280;55906;52.278;6.808;2023-08-06T12:22:13;100377.75;;;27.72;46.64
68871;BME280;55906;52.278;6.808;2023-08-06T12:24:40;100383.88;;;27.59;47.34
68871;BME280;55906;52.278;6.808;2023-08-06T12:27:07;100388.09;;;27.47;47.05
68871;BME280;55906;52.278;6.808;2023-08-06T12:29:34;100387.00;;;27.15;47.90
68871;BME280;55906;52.278;6.808;2023-08-06T12:32:01;100385.41;;;27.11;48.21
68871;BME280;55906;52.278;6.808;2023-08-06T12:34:27;100388.22;;;26.53;49.92
68871;BME280;55906;52.278;6.808;2023-08-06T12:36:54;100384.25;;;26.79;49.15
68871;BME280;55906;52.278;6.808;2023-08-06T12:39:22;100382.81;;;26.72;49.67
68871;BME280;55906;52.278;6.808;2023-08-06T12:41:49;100373.72;;;26.56;50.29
68871;BME280;55906;52.278;6.808;2023-08-06T12:44:15;100373.56;;;26.40;51.68
68871;BME280;55906;52.278;6.808;2023-08-06T12:46:42;100377.63;;;26.30;52.11
68871;BME280;55906;52.278;6.808;2023-08-06T12:49:09;100376.16;;;26.23;53.17
68871;BME280;55906;52.278;6.808;2023-08-06T12:51:35;100365.88;;;26.31;52.18